Time;durP1;ratioP1;P1;durP2;ratioP2;P2;SDS_P1;SDS_P2;PMS_P1;PMS_P2;Temp;Humidity;BMP_temperature;BMP_pressure;BME280_temperature;BME280_humidity;BME280_pressure;Samples;Min_cycle;Max_cycle;Signal;HPM_P1;HPM_P2
2023/08/09 00:00:40;;;;;;;7.90;2.90;;;;;;;13.67;100.00;101081.75;5064056;28;20473;-77
2023/08/09 00:03:06;;;;;;;6.15;2.90;;;;;;;13.67;100.00;101081.75;5056731;28;20021;-77
2023/08/09 00:05:31;;;;;;;10.90;3.38;;;;;;;13.67;100.00;101081.75;5066437;28;20103;-77
2023/08/09 00:07:57;;;;;;;8.82;3.53;;;;;;;13.69;100.00;101078.94;5072270;28;20040;-77
2023/08/09 00:10:22;;;;;;;7.82;2.90;;;;;;;13.66;100.00;101082.75;5056825;28;20079;-77
2023/08/09 00:12:48;;;;;;;10.95;3.40;;;;;;;13.66;100.00;101081.88;5086872;28;20024;-77
2023/08/09 00:15:15;;;;;;;10.38;3.58;;;;;;;13.66;100.00;101076.47;5063874;28;20111;-77
2023/08/09 00:17:40;;;;;;;10.48;3.63;;;;;;;13.64;100.00;101073.91;5052137;28;20159;-77
2023/08/09 00:20:08;;;;;;;11.60;3.58;;;;;;;13.61;100.00;101085.81;5058083;28;20027;-77
2023/08/09 00:22:33;;;;;;;9.00;3.33;;;;;;;13.59;100.00;101079.69;5079477;28;20032;-77
2023/08/09 00:24:59;;;;;;;8.82;3.35;;;;;;;13.58;100.00;101080.66;5062968;28;20028;-77
2023/08/09 00:27:24;;;;;;;9.60;3.47;;;;;;;13.56;100.00;101085.34;5064148;28;20030;-77
2023/08/09 00:29:49;;;;;;;10.23;3.40;;;;;;;13.56;100.00;101085.34;5057612;28;20395;-77
2023/08/09 00:32:15;;;;;;;11.10;3.72;;;;;;;13.55;100.00;101082.78;5056391;28;20021;-77
2023/08/09 00:34:40;;;;;;;8.50;3.40;;;;;;;13.54;100.00;101084.59;5055773;28;20055;-77
2023/08/09 00:37:06;;;;;;;13.23;3.97;;;;;;;13.53;100.00;101077.50;5060916;28;20056;-77
2023/08/09 00:39:32;;;;;;;11.07;3.20;;;;;;;13.55;100.00;101077.38;5054130;28;20088;-77
2023/08/09 00:41:57;;;;;;;10.30;3.95;;;;;;;13.54;100.00;101084.59;5067291;28;20029;-77
2023/08/09 00:44:22;;;;;;;11.93;3.70;;;;;;;13.55;100.00;101089.03;5062990;28;20063;-77
2023/08/09 00:46:49;;;;;;;10.82;3.70;;;;;;;13.58;100.00;101083.38;5062583;28;20028;-77
2023/08/09 00:49:15;;;;;;;8.80;3.50;;;;;;;13.57;100.00;101089.78;5061094;28;20025;-77
2023/08/09 00:51:41;;;;;;;12.18;4.03;;;;;;;13.58;100.00;101091.47;5050111;28;20412;-77
2023/08/09 00:54:06;;;;;;;9.82;3.55;;;;;;;13.60;100.00;101092.22;5061783;28;20464;-77
2023/08/09 00:56:32;;;;;;;11.13;3.60;;;;;;;13.58;100.00;101091.47;5062284;28;20021;-77
2023/08/09 00:58:57;;;;;;;11.07;3.88;;;;;;;13.56;100.00;101096.16;5066920;28;20059;-77
2023/08/09 01:01:22;;;;;;;11.48;3.55;;;;;;;13.55;100.00;101098.97;5054060;28;20492;-77
2023/08/09 01:03:48;;;;;;;8.07;3.28;;;;;;;13.55;100.00;101105.22;5052486;28;20391;-77
2023/08/09 01:06:31;;;;;;;9.57;3.53;;;;;;;13.55;100.00;101110.63;5063149;28;20557;-77
2023/08/09 01:09:15;;;;;;;7.82;3.42;;;;;;;13.55;100.00;101107.94;5053943;28;20107;-77
2023/08/09 01:12:03;;;;;;;12.95;3.75;;;;;;;13.53;100.00;101103.63;5059772;28;20052;-77
2023/08/09 01:14:30;;;;;;;11.93;4.05;;;;;;;13.51;100.00;101105.63;5052436;28;20048;-77
2023/08/09 01:16:56;;;;;;;8.68;3.60;;;;;;;13.48;100.00;101106.72;5082082;28;20020;-77
2023/08/09 01:19:24;;;;;;;11.27;3.85;;;;;;;13.51;100.00;101105.63;5061058;28;20035;-77
2023/08/09 01:21:50;;;;;;;11.07;4.05;;;;;;;13.50;100.00;101101.19;5056724;28;20092;-77
2023/08/09 01:24:16;;;;;;;11.00;3.58;;;;;;;13.49;100.00;101100.34;5057740;28;20563;-77
2023/08/09 01:26:41;;;;;;;11.60;3.97;;;;;;;13.51;100.00;101105.63;5065430;28;20518;-77
2023/08/09 01:29:07;;;;;;;10.73;3.92;;;;;;;13.50;100.00;101101.19;5055033;28;20115;-77
2023/08/09 01:31:32;;;;;;;9.68;3.38;;;;;;;13.52;100.00;101108.19;5061264;28;20032;-77
2023/08/09 01:33:57;;;;;;;12.00;3.55;;;;;;;13.52;100.00;101108.19;5061501;28;20488;-77
2023/08/09 01:36:29;;;;;;;9.07;3.55;;;;;;;13.51;100.00;101117.25;5055733;28;20028;-77
2023/08/09 01:39:00;;;;;;;11.23;3.65;;;;;;;13.50;100.00;101112.88;5057367;28;20083;-77
2023/08/09 01:41:27;;;;;;;12.27;3.97;;;;;;;13.49;100.00;101111.16;5065500;28;20028;-77
2023/08/09 01:43:54;;;;;;;10.18;3.83;;;;;;;13.47;100.00;101115.81;5081117;28;20028;-77
2023/08/09 01:46:20;;;;;;;9.68;4.05;;;;;;;13.45;100.00;101115.91;5059498;28;20028;-77
2023/08/09 01:48:45;;;;;;;11.25;3.78;;;;;;;13.43;100.00;101111.66;5060497;28;20020;-77
2023/08/09 01:51:10;;;;;;;11.82;3.78;;;;;;;13.38;100.00;101111.16;5055804;28;20078;-77
2023/08/09 01:53:35;;;;;;;12.32;4.28;;;;;;;13.32;100.00;101125.97;5054067;28;20053;-77
2023/08/09 01:56:01;;;;;;;8.35;3.55;;;;;;;13.27;100.00;101130.88;5055353;28;20017;-77
2023/08/09 01:58:26;;;;;;;8.65;3.40;;;;;;;13.21;100.00;101129.53;5054920;28;20103;-77
2023/08/09 02:00:52;;;;;;;12.32;3.63;;;;;;;13.15;100.00;101118.34;5061423;28;20063;-77
2023/08/09 02:03:17;;;;;;;9.88;3.40;;;;;;;13.10;100.00;101116.03;5061830;28;20361;-77
2023/08/09 02:05:43;;;;;;;9.10;3.55;;;;;;;13.04;100.00;101124.63;5061820;28;20021;-77
2023/08/09 02:08:08;;;;;;;10.38;3.50;;;;;;;12.97;100.00;101126.09;5057114;28;20052;-77
2023/08/09 02:10:33;;;;;;;9.27;3.65;;;;;;;12.91;100.00;101132.81;5059004;28;20028;-77
2023/08/09 02:12:58;;;;;;;12.45;3.70;;;;;;;12.86;100.00;101133.19;5065039;28;20025;-77
2023/08/09 02:15:24;;;;;;;8.68;3.28;;;;;;;12.80;100.00;101128.28;5056199;28;20074;-77
2023/08/09 02:17:50;;;;;;;10.18;3.88;;;;;;;12.74;100.00;101131.47;5067440;28;20415;-77
2023/08/09 02:20:16;;;;;;;11.07;3.78;;;;;;;12.70;100.00;101140.78;5057755;28;20025;-77
2023/08/09 02:22:42;;;;;;;17.02;4.47;;;;;;;12.65;100.00;101140.25;5065708;28;20496;-77
2023/08/09 02:25:09;;;;;;;13.27;4.20;;;;;;;12.59;100.00;101144.28;5059229;28;20028;-77
2023/08/09 02:27:35;;;;;;;10.48;3.75;;;;;;;12.52;100.00;101141.22;5061607;28;20070;-77
2023/08/09 02:30:03;;;;;;;10.15;4.00;;;;;;;12.47;100.00;101134.44;5062650;28;20032;-77
2023/08/09 02:32:29;;;;;;;12.68;3.78;;;;;;;12.43;100.00;101143.75;5063550;28;20017;-77
2023/08/09 02:34:54;;;;;;;11.20;4.15;;;;;;;12.40;100.00;101145.72;5061327;28;20028;-77
2023/08/09 02:37:20;;;;;;;17.95;4.80;;;;;;;12.40;100.00;101150.22;5062015;28;20021;-77
2023/08/09 02:39:45;;;;;;;12.23;4.13;;;;;;;12.42;100.00;101148.28;5051506;28;20118;-74
2023/08/09 02:42:10;;;;;;;10.20;3.65;;;;;;;12.42;100.00;101150.97;5045484;28;20498;-74
2023/08/09 02:44:36;;;;;;;13.45;4.80;;;;;;;12.40;100.00;101158.31;5058385;28;20036;-74
2023/08/09 02:47:01;;;;;;;13.68;4.13;;;;;;;12.38;100.00;101155.72;5063733;28;20032;-74
2023/08/09 02:49:26;;;;;;;12.30;3.85;;;;;;;12.35;100.00;101149.72;5059979;28;20040;-74
2023/08/09 02:51:52;;;;;;;10.60;3.83;;;;;;;12.31;100.00;101159.88;5054001;28;20025;-74
2023/08/09 02:54:17;;;;;;;12.52;4.10;;;;;;;12.28;100.00;101170.88;5057735;28;20124;-74
2023/08/09 02:56:42;;;;;;;11.35;4.13;;;;;;;12.24;100.00;101170.28;5058740;28;20498;-74
2023/08/09 02:59:07;;;;;;;9.90;3.75;;;;;;;12.21;100.00;101175.91;5054068;28;20112;-75
2023/08/09 03:01:33;;;;;;;12.52;3.85;;;;;;;12.19;100.00;101180.50;5057343;28;20111;-74
2023/08/09 03:03:59;;;;;;;12.48;4.07;;;;;;;12.19;100.00;101174.28;5055273;28;20124;-75
2023/08/09 03:06:25;;;;;;;10.50;3.95;;;;;;;12.14;100.00;101180.00;5053255;28;20040;-75
2023/08/09 03:08:51;;;;;;;11.68;4.53;;;;;;;12.12;100.00;101181.94;5061076;28;20453;-74
2023/08/09 03:11:24;;;;;;;10.77;3.53;;;;;;;12.09;100.00;101187.56;5061375;28;20142;-74
2023/08/09 03:13:50;;;;;;;8.63;3.03;;;;;;;12.05;100.00;101186.09;5042258;28;20025;-74
2023/08/09 03:16:16;;;;;;;9.82;3.60;;;;;;;12.02;100.00;101195.25;5061549;28;20052;-75
2023/08/09 03:18:41;;;;;;;11.80;3.67;;;;;;;11.99;100.00;101191.91;5062504;28;20029;-74
2023/08/09 03:21:07;;;;;;;7.85;3.05;;;;;;;11.97;100.00;101192.03;5062817;28;20025;-74
2023/08/09 03:23:33;;;;;;;11.23;3.40;;;;;;;11.99;100.00;101181.16;5050346;28;20029;-74
2023/08/09 03:25:59;;;;;;;9.75;3.80;;;;;;;11.98;100.00;101190.22;5051464;28;20029;-74
2023/08/09 03:28:24;;;;;;;17.65;3.97;;;;;;;11.98;100.00;101190.22;5065105;28;20383;-74
2023/08/09 03:30:50;;;;;;;15.57;4.20;;;;;;;12.00;100.00;101193.66;5061995;28;20032;-74
2023/08/09 03:33:15;;;;;;;15.93;3.80;;;;;;;11.97;100.00;101193.88;5064691;28;20027;-75
2023/08/09 03:35:41;;;;;;;16.17;4.53;;;;;;;11.95;100.00;101199.38;5067848;28;20036;-75
2023/08/09 03:38:06;;;;;;;10.18;3.90;;;;;;;11.95;100.00;101203.88;5064814;28;20072;-75
2023/08/09 03:40:31;;;;;;;11.93;3.95;;;;;;;11.95;100.00;101203.88;5053375;28;20045;-74
2023/08/09 03:42:57;;;;;;;13.93;4.68;;;;;;;11.95;100.00;101206.59;5056583;28;20036;-75
2023/08/09 03:45:23;;;;;;;10.60;3.72;;;;;;;11.94;100.00;101210.28;5064001;28;20028;-75
2023/08/09 03:47:48;;;;;;;16.15;4.25;;;;;;;11.93;100.00;101213.91;5048230;28;20472;-74
2023/08/09 03:50:14;;;;;;;9.35;3.55;;;;;;;11.91;100.00;101221.25;5064674;28;20032;-74
2023/08/09 03:52:40;;;;;;;10.25;3.50;;;;;;;11.88;100.00;101225.00;5067601;28;20031;-75
2023/08/09 03:55:06;;;;;;;13.02;3.65;;;;;;;11.87;100.00;101224.16;5067102;28;20024;-75
2023/08/09 03:57:31;;;;;;;11.50;3.58;;;;;;;11.84;100.00;101227.06;5058412;28;20021;-75
2023/08/09 03:59:57;;;;;;;9.77;3.72;;;;;;;11.80;100.00;101233.66;5064588;28;20032;-75
2023/08/09 04:02:22;;;;;;;11.68;3.55;;;;;;;11.78;100.00;101230.19;5064597;28;20067;-74
2023/08/09 04:04:48;;;;;;;10.50;3.70;;;;;;;11.78;100.00;101230.19;5063780;28;20029;-74
2023/08/09 04:07:13;;;;;;;8.95;3.90;;;;;;;11.77;100.00;101231.19;5061074;28;20020;-75
2023/08/09 04:09:39;;;;;;;15.93;4.43;;;;;;;11.74;100.00;101231.38;5052659;28;20051;-75
2023/08/09 04:12:05;;;;;;;9.50;3.58;;;;;;;11.72;100.00;101233.34;5056005;28;20476;-75
2023/08/09 04:14:30;;;;;;;11.00;4.18;;;;;;;11.70;100.00;101235.28;5061505;28;20029;-74
2023/08/09 04:16:56;;;;;;;11.27;4.05;;;;;;;11.66;100.00;101234.63;5062323;28;20056;-74
2023/08/09 04:19:24;;;;;;;9.60;3.58;;;;;;;11.66;100.00;101236.47;5066910;28;20139;-75
2023/08/09 04:21:49;;;;;;;10.20;3.58;;;;;;;11.63;100.00;101245.63;5062747;28;20032;-75
2023/08/09 04:24:16;;;;;;;12.50;4.30;;;;;;;11.62;100.00;101248.44;5061176;28;20032;-75
2023/08/09 04:26:42;;;;;;;10.45;4.22;;;;;;;11.61;100.00;101249.38;5063570;28;20020;-75
2023/08/09 04:29:07;;;;;;;10.70;3.92;;;;;;;11.60;100.00;101247.69;5066876;28;20107;-75
2023/08/09 04:31:33;;;;;;;10.80;3.42;;;;;;;11.62;100.00;101245.75;5052977;28;20029;-75
2023/08/09 04:33:59;;;;;;;14.88;4.75;;;;;;;11.64;100.00;101252.75;5069797;28;20559;-74
2023/08/09 04:36:25;;;;;;;12.00;4.00;;;;;;;11.64;100.00;101262.63;5066788;28;20020;-75
2023/08/09 04:38:50;;;;;;;12.77;4.85;;;;;;;11.65;100.00;101253.59;5058284;28;20052;-75
2023/08/09 04:41:15;;;;;;;11.75;4.28;;;;;;;11.67;100.00;101246.25;5059936;28;20481;-75
2023/08/09 04:43:43;;;;;;;14.13;4.85;;;;;;;11.68;100.00;101256.06;5059687;28;20025;-74
2023/08/09 04:46:10;;;;;;;14.88;4.60;;;;;;;11.69;100.00;101263.19;5078597;28;20036;-75
2023/08/09 04:48:37;;;;;;;17.50;5.25;;;;;;;11.74;100.00;101255.63;5059815;28;20038;-75
2023/08/09 04:51:03;;;;;;;13.65;4.85;;;;;;;11.76;100.00;101259.06;5054322;28;20090;-74
2023/08/09 04:53:28;;;;;;;15.27;5.00;;;;;;;11.80;100.00;101255.19;5056541;28;20020;-76
2023/08/09 04:55:54;;;;;;;14.27;5.50;;;;;;;11.85;100.00;101261.09;5052656;28;20565;-75
2023/08/09 04:58:19;;;;;;;16.20;6.28;;;;;;;11.93;100.00;101257.88;5063895;28;20028;-75
2023/08/09 05:00:44;;;;;;;18.15;6.90;;;;;;;12.02;100.00;101264.44;5066132;28;20130;-78
2023/08/09 05:03:10;;;;;;;17.42;6.85;;;;;;;12.06;100.00;101260.53;5060140;28;20025;-77
2023/08/09 05:05:36;;;;;;;28.85;7.25;;;;;;;12.13;100.00;101264.50;5057231;28;20028;-77
2023/08/09 05:08:01;;;;;;;17.35;6.65;;;;;;;12.18;100.00;101269.56;5061970;28;20061;-77
2023/08/09 05:10:26;;;;;;;19.65;7.47;;;;;;;12.23;100.00;101276.34;5063896;28;20024;-78
2023/08/09 05:12:51;;;;;;;19.05;7.28;;;;;;;12.28;100.00;101272.44;5056821;28;20094;-77
2023/08/09 05:15:17;;;;;;;26.08;7.18;;;;;;;12.33;100.00;101276.53;5048183;28;20091;-77
2023/08/09 05:17:42;;;;;;;20.00;6.82;;;;;;;12.36;100.00;101279.00;5055783;28;20048;-77
2023/08/09 05:20:08;;;;;;;22.38;8.27;;;;;;;12.38;100.00;101278.88;5061900;28;20534;-77
2023/08/09 05:22:33;;;;;;;22.58;7.68;;;;;;;12.41;100.00;101289.44;5062693;28;20071;-77
2023/08/09 05:24:59;;;;;;;26.50;8.45;;;;;;;12.47;100.00;101285.41;5059510;28;20105;-77
2023/08/09 05:27:27;;;;;;;20.25;8.32;;;;;;;12.49;100.00;101287.03;5055113;28;20288;-77
2023/08/09 05:29:52;;;;;;;19.80;8.77;;;;;;;12.54;100.00;101297.47;5056971;28;20036;-77
2023/08/09 05:32:18;;;;;;;19.85;8.35;;;;;;;12.59;100.00;101297.97;5066370;28;20522;-77
2023/08/09 05:34:44;;;;;;;20.13;7.90;;;;;;;12.62;100.00;101299.59;5057250;28;20047;-77
2023/08/09 05:37:10;;;;;;;20.92;8.82;;;;;;;12.67;100.00;101297.41;5057414;28;20035;-77
2023/08/09 05:39:35;;;;;;;20.50;8.60;;;;;;;12.73;100.00;101302.34;5050138;28;20404;-77
2023/08/09 05:42:00;;;;;;;22.17;10.15;;;;;;;12.79;100.00;101307.28;5062634;28;20028;-77
2023/08/09 05:44:26;;;;;;;23.10;10.38;;;;;;;12.85;100.00;101297.84;5059863;28;20062;-77
2023/08/09 05:46:52;;;;;;;22.48;10.75;;;;;;;12.87;100.00;101302.16;5062195;28;20064;-77
2023/08/09 05:49:18;;;;;;;20.60;10.35;;;;;;;12.92;100.00;101293.72;5056219;28;20373;-77
2023/08/09 05:51:43;;;;;;;22.17;10.25;;;;;;;12.92;100.00;101299.97;5061582;28;20029;-77
2023/08/09 05:54:09;;;;;;;23.08;10.35;;;;;;;12.98;100.00;101309.44;5067117;28;20034;-77
2023/08/09 05:56:34;;;;;;;22.98;11.38;;;;;;;13.04;100.00;101302.72;5057108;28;20432;-77
2023/08/09 05:59:00;;;;;;;24.95;12.55;;;;;;;13.10;100.00;101305.81;5049655;28;20048;-77
2023/08/09 06:01:25;;;;;;;24.83;12.95;;;;;;;13.17;100.00;101310.72;5057741;28;20029;-77
2023/08/09 06:03:51;;;;;;;31.42;12.20;;;;;;;13.18;100.00;101313.31;5059503;28;20035;-77
2023/08/09 06:06:16;;;;;;;24.15;12.85;;;;;;;13.21;100.00;101314.91;5050573;28;20535;-77
2023/08/09 06:08:41;;;;;;;25.80;13.25;;;;;;;13.26;100.00;101321.66;5055270;28;20396;-77
2023/08/09 06:11:07;;;;;;;25.60;13.45;;;;;;;13.28;100.00;101324.28;5056260;28;20380;-75
2023/08/09 06:13:32;;;;;;;30.88;13.57;;;;;;;13.31;100.00;101325.84;5062075;28;20484;-75
2023/08/09 06:15:58;;;;;;;25.60;14.77;;;;;;;13.32;100.00;101332.97;5056908;28;20024;-74
2023/08/09 06:18:24;;;;;;;25.33;13.65;;;;;;;13.33;100.00;101334.72;5061346;28;20112;-75
2023/08/09 06:20:50;;;;;;;25.40;13.82;;;;;;;13.35;100.00;101335.47;5064507;28;20104;-75
2023/08/09 06:23:16;;;;;;;27.30;14.63;;;;;;;13.38;100.00;101346.03;5058364;28;20115;-74
2023/08/09 06:25:41;;;;;;;32.20;17.10;;;;;;;13.39;100.00;101363.97;5059191;28;20136;-75
2023/08/09 06:28:07;;;;;;;27.27;14.80;;;;;;;13.39;100.00;101356.72;5063154;28;20034;-75
2023/08/09 06:30:33;;;;;;;30.55;15.75;;;;;;;13.39;100.00;101358.56;5061094;28;20025;-74
2023/08/09 06:32:59;;;;;;;38.55;16.48;;;;;;;13.40;100.00;101353.03;5064216;28;20089;-74
2023/08/09 06:35:24;;;;;;;35.08;15.38;;;;;;;13.46;100.00;101357.09;5056148;28;20472;-74
2023/08/09 06:37:50;;;;;;;27.88;15.52;;;;;;;13.49;100.00;101361.41;5065270;28;20029;-75
2023/08/09 06:40:16;;;;;;;32.28;15.48;;;;;;;13.45;100.00;101366.19;5047467;28;20095;-75
2023/08/09 06:42:42;;;;;;;29.75;15.05;;;;;;;13.46;100.00;101362.50;5047010;28;20029;-75
2023/08/09 06:45:08;;;;;;;29.70;15.57;;;;;;;13.47;100.00;101358.84;5062426;28;20029;-75
2023/08/09 06:47:33;;;;;;;27.27;15.43;;;;;;;13.49;100.00;101364.97;5055016;28;20038;-74
2023/08/09 06:50:00;;;;;;;26.80;15.32;;;;;;;13.55;100.00;101361.78;5051888;28;20020;-74
2023/08/09 06:52:26;;;;;;;28.02;16.73;;;;;;;13.58;100.00;101366.09;5061653;28;20479;-74
2023/08/09 06:54:52;;;;;;;27.23;15.13;;;;;;;13.69;100.00;101379.63;5063437;28;20030;-74
2023/08/09 06:57:17;;;;;;;28.05;15.50;;;;;;;13.75;100.00;101372.88;5051113;28;20025;-74
2023/08/09 06:59:43;;;;;;;29.13;16.83;;;;;;;13.73;100.00;101385.63;5046851;28;20481;-74
2023/08/09 07:02:09;;;;;;;26.48;14.98;;;;;;;13.75;100.00;101387.25;5051408;28;20029;-74
2023/08/09 07:04:35;;;;;;;30.05;16.30;;;;;;;13.79;100.00;101387.84;5061212;28;20578;-75
2023/08/09 07:07:01;;;;;;;26.67;17.02;;;;;;;13.81;100.00;101392.16;5050751;28;20032;-74
2023/08/09 07:09:26;;;;;;;26.98;15.73;;;;;;;13.89;100.00;101396.94;5063198;28;20036;-74
2023/08/09 07:11:52;;;;;;;29.98;16.85;;;;;;;13.92;100.00;101387.75;5051254;28;20025;-75
2023/08/09 07:14:17;;;;;;;29.40;15.38;;;;;;;13.94;100.00;101389.34;5054654;28;20036;-74
2023/08/09 07:16:42;;;;;;;29.17;17.33;;;;;;;14.02;100.00;101386.03;5066239;28;20050;-75
2023/08/09 07:19:08;;;;;;;26.77;15.52;;;;;;;14.09;100.00;101398.09;5054269;28;20567;-74
2023/08/09 07:21:34;;;;;;;26.58;16.05;;;;;;;14.14;100.00;101400.41;5057806;28;20064;-82
2023/08/09 07:23:59;;;;;;;28.52;16.23;;;;;;;14.22;100.00;101397.97;5051360;28;20104;-82
2023/08/09 07:26:26;;;;;;;28.45;16.63;;;;;;;14.27;100.00;101400.31;5055838;28;20083;-82
2023/08/09 07:28:51;;;;;;;29.92;16.55;;;;;;;14.32;100.00;101406.22;5059017;28;20491;-82
2023/08/09 07:31:21;;;;;;;27.35;15.80;;;;;;;14.34;100.00;101399.69;5056081;28;20068;-80
2023/08/09 07:33:48;;;;;;;27.35;16.27;;;;;;;14.39;100.00;101403.88;5060887;28;20036;-81
2023/08/09 07:36:13;;;;;;;26.20;15.13;;;;;;;14.45;100.00;101409.66;5054477;28;20498;-78
2023/08/09 07:38:39;;;;;;;29.15;17.75;;;;;;;14.48;100.00;101414.81;5054858;28;20227;-80
2023/08/09 07:41:04;;;;;;;27.92;15.93;;;;;;;14.52;100.00;101415.41;5054039;28;20028;-80
2023/08/09 07:43:30;;;;;;;26.75;15.32;;;;;;;14.53;100.00;101425.25;5059393;28;20056;-79
2023/08/09 07:45:55;;;;;;;28.20;15.63;;;;;;;14.57;100.00;101429.44;5051418;28;20025;-79
2023/08/09 07:48:21;;;;;;;27.88;14.82;;;;;;;14.56;100.00;101418.72;5055106;28;20036;-79
2023/08/09 07:50:46;;;;;;;28.92;16.20;;;;;;;14.61;100.00;101424.63;5051977;28;20472;-79
2023/08/09 07:53:12;;;;;;;27.90;16.02;;;;;;;14.64;100.00;101424.41;5055328;28;20017;-78
2023/08/09 07:55:38;;;;;;;27.00;15.50;;;;;;;14.62;100.00;101432.63;5055948;28;20021;-78
2023/08/09 07:58:04;;;;;;;27.92;15.75;;;;;;;14.60;100.00;101436.44;5056378;28;20055;-78
2023/08/09 08:00:30;;;;;;;26.20;14.85;;;;;;;14.64;100.00;101429.81;5054664;28;20051;-78
2023/08/09 08:02:55;;;;;;;27.85;16.05;;;;;;;14.70;100.00;101441.97;5057324;28;20036;-78
2023/08/09 08:05:21;;;;;;;27.27;15.68;;;;;;;14.77;100.00;101443.19;5056932;28;20400;-78
2023/08/09 08:07:46;;;;;;;33.22;15.85;;;;;;;14.80;100.00;101437.53;5054365;28;20028;-78
2023/08/09 08:10:16;;;;;;;29.20;16.42;;;;;;;14.88;100.00;101443.19;5061420;28;20059;-78
2023/08/09 08:12:44;;;;;;;27.38;14.65;;;;;;;14.90;100.00;101438.50;5054819;28;20595;-79
2023/08/09 08:15:09;;;;;;;27.63;14.93;;;;;;;14.93;100.00;101440.09;5057354;28;20029;-78
2023/08/09 08:17:35;;;;;;;29.48;15.68;;;;;;;14.99;100.00;101445.00;5058030;28;20032;-78
2023/08/09 08:20:04;;;;;;;26.52;14.82;;;;;;;15.02;100.00;101450.16;5058097;28;20032;-80
2023/08/09 08:22:30;;;;;;;30.52;16.13;;;;;;;15.03;100.00;101455.44;5061446;28;20048;-78
2023/08/09 08:24:55;;;;;;;28.02;15.65;;;;;;;15.06;100.00;101448.06;5062656;28;20029;-79
2023/08/09 08:27:20;;;;;;;29.60;16.80;;;;;;;15.11;100.00;101453.94;5061203;28;20032;-79
2023/08/09 08:29:46;;;;;;;27.48;15.55;;;;;;;15.11;100.00;101457.53;5064385;28;20036;-77
2023/08/09 08:32:11;;;;;;;27.38;15.55;;;;;;;15.22;100.00;101466.63;5061566;28;20032;-70
2023/08/09 08:34:37;;;;;;;25.88;14.77;;;;;;;15.27;100.00;101467.97;5060806;28;20032;-72
2023/08/09 08:37:04;;;;;;;26.02;14.13;;;;;;;15.36;100.00;101469.03;5064958;28;20024;-74
2023/08/09 08:39:35;;;;;;;25.50;13.50;;;;;;;15.37;100.00;101468.91;5056079;28;20186;-74
2023/08/09 08:42:01;;;;;;;25.40;13.23;;;;;;;15.38;100.00;101457.06;5066104;28;20031;-74
2023/08/09 08:44:26;;;;;;;24.48;13.35;;;;;;;15.40;100.00;101464.19;5067572;28;20785;-74
2023/08/09 08:46:52;;;;;;;26.80;12.50;;;;;;;15.42;100.00;101464.91;5066144;28;20028;-74
2023/08/09 08:49:23;;;;;;;25.35;12.70;;;;;;;15.49;100.00;101474.25;5062857;28;20020;-74
2023/08/09 08:51:52;;;;;;;23.88;12.05;;;;;;;15.51;100.00;101473.16;5063849;28;20087;-74
2023/08/09 08:54:18;;;;;;;25.35;11.93;;;;;;;15.56;100.00;101475.47;5067202;28;20063;-75
2023/08/09 08:56:44;;;;;;;22.73;10.68;;;;;;;15.59;100.00;101480.63;5062070;28;20025;-74
2023/08/09 08:59:11;;;;;;;23.58;11.45;;;;;;;15.60;100.00;101486.91;5064437;28;20029;-74
2023/08/09 09:01:36;;;;;;;24.77;13.30;;;;;;;15.67;100.00;101493.53;5067252;28;20387;-74
2023/08/09 09:04:01;;;;;;;24.85;11.63;;;;;;;15.67;100.00;101486.25;5067047;28;20031;-74
2023/08/09 09:06:27;;;;;;;24.52;10.93;;;;;;;15.73;100.00;101491.16;5067650;28;20029;-74
2023/08/09 09:08:59;;;;;;;23.73;10.30;;;;;;;15.76;100.00;101492.75;5065126;28;20123;-74
2023/08/09 09:11:25;;;;;;;22.48;10.57;;;;;;;15.78;100.00;101496.19;5065265;28;20052;-74
2023/08/09 09:13:51;;;;;;;23.15;10.13;;;;;;;15.80;100.00;101496.06;5065706;28;20494;-75
2023/08/09 09:16:17;;;;;;;21.92;9.98;;;;;;;15.84;100.00;101493.00;5053311;28;20025;-75
2023/08/09 09:18:48;;;;;;;23.40;10.23;;;;;;;15.94;100.00;101501.19;5068426;28;20060;-78
2023/08/09 09:21:16;;;;;;;23.38;11.10;;;;;;;16.01;100.00;101491.53;5055681;28;20098;-81
2023/08/09 09:23:42;;;;;;;22.63;10.93;;;;;;;16.07;100.00;101491.00;5064676;28;20021;-73
2023/08/09 09:26:09;;;;;;;25.80;11.02;;;;;;;16.12;100.00;101493.31;5072642;28;20039;-75
2023/08/09 09:28:44;;;;;;;23.67;11.82;;;;;;;16.21;100.00;101489.81;5067725;28;20025;-76
2023/08/09 09:31:10;;;;;;;26.40;11.38;;;;;;;16.28;100.00;101502.81;5061529;28;20024;-73
2023/08/09 09:33:36;;;;;;;23.13;11.70;;;;;;;16.36;100.00;101498.44;5074556;28;20024;-75
2023/08/09 09:36:03;;;;;;;23.05;11.23;;;;;;;16.45;100.00;101506.78;5081369;28;20055;-75
2023/08/09 09:38:29;;;;;;;25.58;12.27;;;;;;;16.48;100.00;101510.06;5081208;28;20052;-74
2023/08/09 09:40:56;;;;;;;23.60;11.73;;;;;;;16.55;100.00;101510.41;5068104;28;20037;-75
2023/08/09 09:43:22;;;;;;;22.77;11.13;;;;;;;16.61;100.00;101504.44;5056261;28;20063;-74
2023/08/09 09:45:52;;;;;;;22.95;11.27;;;;;;;16.67;100.00;101497.59;5047533;28;20044;-74
2023/08/09 09:48:17;;;;;;;;;;;;;;;16.72;100.00;101493.47;5054851;28;20037;-74
2023/08/09 09:50:43;;;;;;;25.35;13.40;;;;;;;16.79;100.00;101491.06;5058445;28;19920;-74
2023/08/09 09:53:11;;;;;;;23.77;12.48;;;;;;;16.86;100.00;101491.38;5060848;28;20538;-74
2023/08/09 09:55:37;;;;;;;22.88;10.98;;;;;;;16.91;100.00;101489.13;5062036;28;20055;-75
2023/08/09 09:58:02;;;;;;;22.70;11.63;;;;;;;16.93;100.00;101492.59;5058669;28;20035;-73
2023/08/09 10:00:28;;;;;;;28.75;11.88;;;;;;;17.02;100.00;101497.16;5057388;28;20020;-73
2023/08/09 10:02:54;;;;;;;22.42;11.13;;;;;;;17.07;100.00;101496.75;5046639;28;20033;-74
2023/08/09 10:05:29;;;;;;;22.15;10.48;;;;;;;17.14;100.00;101505.22;5049347;28;20024;-77
2023/08/09 10:07:56;;;;;;;20.33;10.23;;;;;;;17.20;100.00;101499.22;5049610;28;20032;-77
2023/08/09 10:10:22;;;;;;;21.92;10.82;;;;;;;17.28;100.00;101497.50;5049639;28;20024;-76
2023/08/09 10:12:51;;;;;;;19.80;9.45;;;;;;;17.35;100.00;101500.53;5052417;28;20021;-76
2023/08/09 10:15:23;;;;;;;20.52;8.98;;;;;;;17.47;100.00;101493.97;5063162;28;20031;-76
2023/08/09 10:17:52;;;;;;;19.60;10.02;;;;;;;17.50;100.00;101498.25;5067512;28;20029;-76
2023/08/09 10:20:19;;;;;;;20.85;9.57;;;;;;;17.54;100.00;101490.66;5050428;28;20021;-76
2023/08/09 10:22:50;;;;;;;21.92;8.88;;;;;;;17.57;100.00;101501.25;5068316;28;20025;-76
2023/08/09 10:25:16;;;;;;;21.90;9.38;;;;;;;17.63;100.00;101495.28;5059713;28;20043;-76
2023/08/09 10:27:49;;;;;;;17.52;7.93;;;;;;;17.68;100.00;101497.56;5061124;28;20025;-76
2023/08/09 10:30:17;;;;;;;17.38;7.80;;;;;;;17.74;100.00;101503.25;5065674;28;20116;-76
2023/08/09 10:32:55;;;;;;;19.55;9.27;;;;;;;17.85;100.00;101509.56;5063024;28;20089;-76
2023/08/09 10:35:43;;;;;;;19.20;8.57;;;;;;;17.90;100.00;101510.03;5065776;28;20032;-76
2023/08/09 10:38:12;;;;;;;18.67;8.23;;;;;;;17.90;100.00;101507.31;5058295;28;20032;-76
2023/08/09 10:40:40;;;;;;;17.42;8.10;;;;;;;17.87;99.98;101516.56;5060251;28;20067;-76
2023/08/09 10:43:06;;;;;;;18.85;8.75;;;;;;;17.91;100.00;101519.91;5060438;28;20029;-76
2023/08/09 10:45:31;;;;;;;17.42;8.95;;;;;;;17.99;97.84;101517.31;5060359;28;20369;-76
2023/08/09 10:48:17;;;;;;;17.88;8.13;;;;;;;18.07;100.00;101519.28;5050859;28;20400;-76
2023/08/09 10:50:42;;;;;;;19.05;8.70;;;;;;;18.13;98.84;101524.16;5058204;28;20119;-75
2023/08/09 10:53:08;;;;;;;18.30;7.63;;;;;;;18.20;95.37;101519.88;5066973;28;20060;-75
2023/08/09 10:55:33;;;;;;;16.08;7.32;;;;;;;18.26;93.14;101523.84;5069243;28;20036;-75
2023/08/09 10:58:00;;;;;;;18.23;6.90;;;;;;;18.27;93.78;101518.28;5060422;28;20021;-75
2023/08/09 11:00:28;;;;;;;16.70;6.97;;;;;;;18.30;95.49;101523.44;5069667;28;20064;-75
2023/08/09 11:02:56;;;;;;;15.50;6.32;;;;;;;18.35;91.01;101522.97;5069791;28;20026;-75